Time;durP1;ratioP1;P1;durP2;ratioP2;P2;SDS_P1;SDS_P2;PMS_P1;PMS_P2;Temp;Humidity;BMP_temperature;BMP_pressure;BME280_temperature;BME280_humidity;BME280_pressure;Samples;Min_cycle;Max_cycle;Signal;HPM_P1;HPM_P2
2021/03/14 00:00:37;;;;;;;2.37;1.30;;;5.00;99.90;;;-141.85;100.00;63675.41;5031821;28;20188;-59
2021/03/14 00:03:08;;;;;;;2.30;1.40;;;5.00;99.90;;;-141.85;100.00;63675.41;5032742;28;20216;-59
2021/03/14 00:05:37;;;;;;;2.30;1.43;;;5.00;99.90;;;-141.85;100.00;63675.41;5032436;28;20191;-60
2021/03/14 00:08:05;;;;;;;2.77;1.53;;;4.90;99.90;;;-141.85;100.00;63675.41;5032779;28;20205;-59
2021/03/14 00:10:33;;;;;;;1.57;1.00;;;5.00;99.90;;;-141.85;100.00;63675.41;5032180;28;20245;-58
2021/03/14 00:13:00;;;;;;;2.43;1.30;;;4.90;99.90;;;-141.85;100.00;63675.41;5032323;28;20231;-59
2021/03/14 00:15:28;;;;;;;1.40;0.90;;;4.90;99.90;;;-141.85;100.00;63675.41;5032463;28;20262;-59
2021/03/14 00:18:12;;;;;;;1.37;0.90;;;5.00;99.90;;;-141.85;100.00;63675.41;5032541;28;20210;-60
2021/03/14 00:20:40;;;;;;;1.40;1.20;;;4.90;99.90;;;-141.85;100.00;63675.41;5032106;28;20241;-58
2021/03/14 00:23:07;;;;;;;3.00;1.10;;;5.00;99.90;;;-141.85;100.00;63675.41;5032516;28;20202;-59
2021/03/14 00:25:34;;;;;;;2.20;1.10;;;4.90;99.90;;;-141.85;100.00;63675.41;5031859;28;20211;-60
2021/03/14 00:28:02;;;;;;;2.23;0.90;;;4.80;99.90;;;-141.85;100.00;63675.41;5032311;28;20290;-58
2021/03/14 00:30:30;;;;;;;2.97;1.10;;;4.90;99.90;;;-141.85;100.00;63675.41;5032289;28;20675;-59
2021/03/14 00:32:57;;;;;;;1.40;0.90;;;4.90;99.90;;;-141.85;100.00;63675.41;5032004;28;20216;-58
2021/03/14 00:35:25;;;;;;;1.73;1.00;;;4.90;99.90;;;-141.85;100.00;63675.41;5032037;28;20241;-59
2021/03/14 00:37:54;;;;;;;2.30;1.20;;;4.90;99.90;;;-141.85;100.00;63675.41;5032231;28;20202;-60
2021/03/14 00:40:24;;;;;;;2.30;1.10;;;4.90;99.90;;;-141.85;100.00;63675.41;5032333;28;20255;-58
2021/03/14 00:42:53;;;;;;;2.97;1.37;;;4.90;99.90;;;-141.85;100.00;63675.41;5032259;28;20654;-59
2021/03/14 00:45:31;;;;;;;3.63;1.43;;;4.90;99.90;;;-141.85;100.00;63675.41;5032265;28;20196;-58
2021/03/14 00:47:59;;;;;;;2.57;1.60;;;4.90;99.90;;;-141.85;100.00;63675.41;5032407;28;20243;-59
2021/03/14 00:50:26;;;;;;;3.57;1.67;;;4.80;99.90;;;-141.85;100.00;63675.41;5032120;28;20211;-59
2021/03/14 00:52:54;;;;;;;2.53;1.57;;;4.90;99.90;;;-141.85;100.00;63675.41;5032155;28;20206;-59
2021/03/14 00:55:21;;;;;;;2.27;1.60;;;4.80;99.90;;;-141.85;100.00;63675.41;5031751;28;20260;-59
2021/03/14 00:57:48;;;;;;;3.00;1.60;;;4.80;99.90;;;-141.85;100.00;63675.41;5031925;28;20202;-58
2021/03/14 01:00:16;;;;;;;2.70;1.77;;;4.80;99.90;;;-141.85;100.00;63675.41;5031749;28;20310;-60
2021/03/14 01:02:44;;;;;;;3.10;1.30;;;4.70;99.90;;;-141.85;100.00;63675.41;5032073;28;20202;-60
2021/03/14 01:05:12;;;;;;;3.23;1.50;;;4.80;99.90;;;-141.85;100.00;63675.41;5032215;28;20207;-59
2021/03/14 01:07:39;;;;;;;2.80;1.33;;;4.80;99.90;;;-141.85;100.00;63675.41;5032087;28;20257;-60
2021/03/14 01:10:09;;;;;;;2.70;2.07;;;4.70;99.90;;;-141.85;100.00;63675.41;5031612;28;20204;-63
2021/03/14 01:12:37;;;;;;;3.03;1.73;;;4.70;99.90;;;-141.85;100.00;63675.41;5039709;28;20207;-62
2021/03/14 01:15:08;;;;;;;4.53;1.83;;;4.70;99.90;;;-141.85;100.00;63675.41;5041797;28;20223;-64
2021/03/14 01:17:35;;;;;;;1.63;1.40;;;4.70;99.90;;;-141.85;100.00;63675.41;5038273;28;20203;-62
2021/03/14 01:20:06;;;;;;;3.97;1.67;;;4.70;99.90;;;-141.85;100.00;63675.41;5035926;28;20278;-63
2021/03/14 01:22:33;;;;;;;4.33;1.50;;;4.70;99.90;;;-141.85;100.00;63675.41;5035804;28;20219;-63
2021/03/14 01:25:01;;;;;;;2.60;1.50;;;4.70;99.90;;;-141.85;100.00;63675.41;5035272;28;20290;-63
2021/03/14 01:27:28;;;;;;;5.40;1.60;;;4.80;99.90;;;-141.85;100.00;63675.41;5035891;28;20269;-63
2021/03/14 01:29:55;;;;;;;6.90;2.20;;;4.70;99.90;;;-141.85;100.00;63675.41;5035301;28;20200;-63
2021/03/14 01:32:22;;;;;;;3.83;1.60;;;4.70;99.90;;;-141.85;100.00;63675.41;5035077;28;20290;-62
2021/03/14 01:34:50;;;;;;;2.97;1.90;;;4.80;99.90;;;-141.85;100.00;63675.41;5035577;28;20224;-63
2021/03/14 01:37:19;;;;;;;2.70;1.50;;;4.80;99.90;;;-141.85;100.00;63675.41;5055388;28;20243;-62
2021/03/14 01:39:46;;;;;;;3.17;1.90;;;4.70;99.90;;;-141.85;100.00;63675.41;5054841;28;20206;-62
2021/03/14 01:42:14;;;;;;;2.87;1.60;;;4.80;99.90;;;-141.85;100.00;63675.41;5054841;28;20292;-62
2021/03/14 01:44:43;;;;;;;4.47;1.33;;;4.80;99.90;;;-141.85;100.00;63675.41;5055236;28;20268;-63
2021/03/14 01:47:11;;;;;;;2.80;1.40;;;4.80;99.90;;;-141.85;100.00;63675.41;5054795;28;20690;-62
2021/03/14 01:49:39;;;;;;;2.63;1.47;;;4.80;99.90;;;-141.85;100.00;63675.41;5054946;28;20202;-63
2021/03/14 01:52:07;;;;;;;5.33;1.80;;;4.80;99.90;;;-141.85;100.00;63675.41;5055058;28;20229;-62
2021/03/14 01:54:35;;;;;;;3.47;1.80;;;4.80;99.90;;;-141.85;100.00;63675.41;5054607;28;20341;-63
2021/03/14 01:57:02;;;;;;;4.87;1.83;;;4.80;99.90;;;-141.85;100.00;63675.41;5054802;28;20234;-63
2021/03/14 01:59:30;;;;;;;5.37;1.60;;;4.80;99.90;;;-141.85;100.00;63675.41;5054623;28;20604;-63
2021/03/14 02:01:57;;;;;;;3.13;1.57;;;4.70;99.90;;;-141.85;100.00;63675.41;5054429;28;20198;-63
2021/03/14 02:04:25;;;;;;;4.43;1.30;;;4.70;99.90;;;-141.85;100.00;63675.41;5054623;28;20208;-63
2021/03/14 02:06:52;;;;;;;6.13;1.60;;;4.80;99.90;;;-141.85;100.00;63675.41;5054662;28;20207;-63
2021/03/14 02:09:19;;;;;;;4.33;2.00;;;4.80;99.90;;;-141.85;100.00;63675.41;5054164;28;20212;-62
2021/03/14 02:11:51;;;;;;;6.23;1.90;;;4.80;99.90;;;-141.85;100.00;63675.41;5054736;28;20199;-63
2021/03/14 02:14:20;;;;;;;2.47;1.70;;;4.80;99.90;;;-141.85;100.00;63675.41;5054516;28;20196;-63
2021/03/14 02:16:50;;;;;;;3.47;1.60;;;4.90;99.90;;;-141.85;100.00;63675.41;5054573;28;20252;-63
2021/03/14 02:19:39;;;;;;;3.13;1.50;;;4.80;99.90;;;-141.85;100.00;63675.41;5054308;28;20190;-62
2021/03/14 02:22:06;;;;;;;5.20;1.90;;;4.80;99.90;;;-141.85;100.00;63675.41;5034991;28;20225;-62
2021/03/14 02:24:44;;;;;;;4.23;1.67;;;4.70;99.90;;;-141.85;100.00;63675.41;5034159;28;20236;-63
2021/03/14 02:27:14;;;;;;;5.77;2.17;;;4.70;99.90;;;-141.85;100.00;63675.41;5034162;28;20190;-62
2021/03/14 02:29:42;;;;;;;4.47;1.67;;;4.70;99.90;;;-141.85;100.00;63675.41;5033579;28;20228;-63
2021/03/14 02:32:11;;;;;;;3.47;1.80;;;4.70;99.90;;;-141.85;100.00;63675.41;5033803;28;20285;-62
2021/03/14 02:34:46;;;;;;;2.67;1.57;;;4.70;99.90;;;-141.85;100.00;63675.41;5033689;28;20699;-62
2021/03/14 02:37:15;;;;;;;4.67;1.90;;;4.60;99.90;;;-141.85;100.00;63675.41;5014429;28;20254;-62
2021/03/14 02:39:43;;;;;;;4.20;1.63;;;4.60;99.90;;;-141.85;100.00;63675.41;5014103;28;20258;-63
2021/03/14 02:42:14;;;;;;;4.37;1.80;;;4.60;99.90;;;-141.85;100.00;63675.41;5014372;28;20203;-63
2021/03/14 02:44:47;;;;;;;2.80;1.87;;;4.60;99.90;;;-141.85;100.00;63675.41;5013994;28;20538;-62
2021/03/14 02:47:17;;;;;;;3.50;1.50;;;4.60;99.90;;;-141.85;100.00;63675.41;5014033;28;20633;-62
2021/03/14 02:50:01;;;;;;;3.27;1.50;;;4.70;99.90;;;-141.85;100.00;63675.41;5013978;28;20186;-63
2021/03/14 02:52:29;;;;;;;5.00;1.80;;;4.80;99.90;;;-141.85;100.00;63675.41;5014084;28;20196;-62
2021/03/14 02:54:58;;;;;;;4.10;1.77;;;4.90;99.90;;;-141.85;100.00;63675.41;5014008;28;20326;-62
2021/03/14 02:57:26;;;;;;;3.53;1.67;;;4.90;99.90;;;-141.85;100.00;63675.41;5014035;28;20204;-63
2021/03/14 02:59:55;;;;;;;6.57;2.80;;;4.90;99.90;;;-141.85;100.00;63675.41;5013828;28;20253;-63
2021/03/14 03:02:24;;;;;;;4.03;1.60;;;4.90;99.90;;;-141.85;100.00;63675.41;5013866;28;20211;-63
2021/03/14 03:04:52;;;;;;;3.07;1.40;;;4.80;99.90;;;-141.85;100.00;63675.41;5013540;28;20648;-62
2021/03/14 03:07:23;;;;;;;3.63;2.20;;;4.70;99.90;;;-141.85;100.00;63675.41;5013606;28;20203;-63
2021/03/14 03:09:52;;;;;;;2.10;1.60;;;4.60;99.90;;;-141.85;100.00;63675.41;5013563;28;20844;-64
2021/03/14 03:12:26;;;;;;;3.63;1.60;;;4.70;99.90;;;-141.85;100.00;63675.41;5013758;28;20199;-63
2021/03/14 03:14:56;;;;;;;3.40;1.50;;;4.70;99.90;;;-141.85;100.00;63675.41;5013605;28;20240;-63
2021/03/14 03:17:25;;;;;;;4.23;1.70;;;4.70;99.90;;;-141.85;100.00;63675.41;5013793;28;20266;-63
2021/03/14 03:19:55;;;;;;;3.87;1.97;;;4.70;99.90;;;-141.85;100.00;63675.41;5013549;28;20212;-63
2021/03/14 03:22:22;;;;;;;3.57;2.00;;;4.60;99.90;;;-141.85;100.00;63675.41;5013434;28;20239;-63
2021/03/14 03:24:52;;;;;;;3.60;1.73;;;4.60;99.90;;;-141.85;100.00;63675.41;5013636;28;20295;-63
2021/03/14 03:27:20;;;;;;;3.27;1.70;;;4.70;99.90;;;-141.85;100.00;63675.41;5013715;28;20185;-63
2021/03/14 03:29:52;;;;;;;2.47;1.97;;;4.60;99.90;;;-141.85;100.00;63675.41;5013445;28;20200;-63
2021/03/14 03:32:19;;;;;;;4.23;2.00;;;4.60;99.90;;;-141.85;100.00;63675.41;5013165;28;20197;-63
2021/03/14 03:34:47;;;;;;;4.37;2.10;;;4.60;99.90;;;-141.85;100.00;63675.41;5012665;28;20227;-63
2021/03/14 03:37:14;;;;;;;2.63;1.77;;;4.60;99.90;;;-141.85;100.00;63675.41;5032856;28;20192;-63
2021/03/14 03:39:41;;;;;;;2.77;1.60;;;4.50;99.90;;;-141.85;100.00;63675.41;5032872;28;20644;-63
2021/03/14 03:42:15;;;;;;;3.27;1.43;;;4.50;99.90;;;-141.85;100.00;63675.41;5033134;28;20328;-63
2021/03/14 03:44:42;;;;;;;4.13;1.73;;;4.40;99.90;;;-141.85;100.00;63675.41;5032971;28;20194;-63
2021/03/14 03:47:14;;;;;;;3.20;2.07;;;4.50;99.90;;;-141.85;100.00;63675.41;5032653;28;20228;-63
2021/03/14 03:49:48;;;;;;;2.63;1.80;;;4.50;99.90;;;-141.85;100.00;63675.41;5032886;28;20186;-63
2021/03/14 03:52:17;;;;;;;3.97;1.90;;;4.50;99.90;;;-141.85;100.00;63675.41;5032365;28;20238;-63
2021/03/14 03:54:48;;;;;;;3.03;1.87;;;4.50;99.90;;;-141.85;100.00;63675.41;5032854;28;20231;-64
2021/03/14 03:57:18;;;;;;;2.83;2.10;;;4.50;99.90;;;-141.85;100.00;63675.41;5032958;28;20275;-62
2021/03/14 03:59:47;;;;;;;2.30;2.07;;;4.50;99.90;;;-141.85;100.00;63675.41;5032651;28;20328;-62
2021/03/14 04:02:16;;;;;;;4.20;2.00;;;4.50;99.90;;;-141.85;100.00;63675.41;5032504;28;20659;-62
2021/03/14 04:04:45;;;;;;;2.00;1.70;;;4.50;99.90;;;-141.85;100.00;63675.41;5032701;28;20203;-62
2021/03/14 04:07:13;;;;;;;6.20;1.70;;;4.50;99.90;;;-141.85;100.00;63675.41;5032411;28;20272;-62
2021/03/14 04:09:44;;;;;;;4.20;2.13;;;4.40;99.90;;;-141.85;100.00;63675.41;5032716;28;20671;-62
2021/03/14 04:12:12;;;;;;;3.80;2.00;;;4.30;99.90;;;-141.85;100.00;63675.41;5032759;28;20206;-63
2021/03/14 04:14:40;;;;;;;3.57;1.70;;;4.30;99.90;;;-141.85;100.00;63675.41;5032643;28;20199;-63
2021/03/14 04:17:08;;;;;;;2.17;1.97;;;4.40;99.90;;;-141.85;100.00;63675.41;5032591;28;20255;-62
2021/03/14 04:19:37;;;;;;;2.63;1.90;;;4.40;99.90;;;-141.85;100.00;63675.41;5032444;28;20290;-62
2021/03/14 04:22:07;;;;;;;3.87;1.87;;;4.30;99.90;;;-141.85;100.00;63675.41;5032149;28;20198;-63
2021/03/14 04:24:36;;;;;;;2.50;1.33;;;4.20;99.90;;;-141.85;100.00;63675.41;5032259;28;20661;-62
2021/03/14 04:27:05;;;;;;;2.07;1.87;;;4.20;99.90;;;-141.85;100.00;63675.41;5032294;28;20252;-60
2021/03/14 04:29:34;;;;;;;2.17;1.80;;;4.10;99.90;;;-141.85;100.00;63675.41;5032756;28;20213;-59
2021/03/14 04:32:02;;;;;;;3.87;2.40;;;4.30;99.90;;;-141.85;100.00;63675.41;5032459;28;20272;-58
2021/03/14 04:34:30;;;;;;;2.90;2.00;;;4.30;99.90;;;-141.85;100.00;63675.41;5032366;28;20287;-59
2021/03/14 04:36:59;;;;;;;2.63;1.53;;;4.20;99.90;;;-141.85;100.00;63675.41;5050133;28;20272;-59
2021/03/14 04:39:26;;;;;;;2.77;1.60;;;4.20;99.90;;;-141.85;100.00;63675.41;5052123;28;20234;-57
2021/03/14 04:41:55;;;;;;;1.93;1.57;;;4.20;99.90;;;-141.85;100.00;63675.41;5052043;28;20691;-58
2021/03/14 04:44:24;;;;;;;2.77;2.00;;;4.30;99.90;;;-141.85;100.00;63675.41;5051924;28;20302;-58
2021/03/14 04:46:52;;;;;;;2.03;1.70;;;4.30;99.90;;;-141.85;100.00;63675.41;5054856;28;20681;-59
2021/03/14 04:49:19;;;;;;;3.20;1.87;;;4.30;99.90;;;-141.85;100.00;63675.41;5055943;28;20241;-59
2021/03/14 04:51:49;;;;;;;2.60;1.90;;;4.30;99.90;;;-141.85;100.00;63675.41;5055622;28;20249;-58
2021/03/14 04:54:18;;;;;;;2.10;1.90;;;4.30;99.90;;;-141.85;100.00;63675.41;5055507;28;20304;-59
2021/03/14 04:56:46;;;;;;;2.37;1.80;;;4.20;99.90;;;-141.85;100.00;63675.41;5055570;28;20312;-60
2021/03/14 04:59:15;;;;;;;2.87;2.20;;;4.20;99.90;;;-141.85;100.00;63675.41;5055889;28;20625;-60
2021/03/14 05:01:45;;;;;;;2.53;2.03;;;4.20;99.90;;;-141.85;100.00;63675.41;5055779;28;20205;-59
2021/03/14 05:04:18;;;;;;;3.07;2.20;;;4.20;99.90;;;-141.85;100.00;63675.41;5055504;28;20188;-59
2021/03/14 05:06:46;;;;;;;3.10;2.20;;;4.20;99.90;;;-141.85;100.00;63675.41;5055317;28;20612;-59
2021/03/14 05:09:16;;;;;;;4.43;1.93;;;4.20;99.90;;;-141.85;100.00;63675.41;5055785;28;20203;-58
2021/03/14 05:11:47;;;;;;;4.50;2.30;;;4.20;99.90;;;-141.85;100.00;63675.41;5055363;28;20225;-59
2021/03/14 05:14:16;;;;;;;3.67;2.27;;;4.30;99.90;;;-141.85;100.00;63675.41;5055055;28;20726;-58
2021/03/14 05:16:44;;;;;;;3.33;2.73;;;4.30;99.90;;;-141.85;100.00;63675.41;5055256;28;20239;-58
2021/03/14 05:19:12;;;;;;;2.43;2.23;;;4.30;99.90;;;-141.85;100.00;63675.41;5055558;28;20296;-59
2021/03/14 05:21:57;;;;;;;3.50;2.17;;;4.30;99.90;;;-141.85;100.00;63675.41;5044145;28;20271;-59
2021/03/14 05:24:25;;;;;;;4.10;2.30;;;4.30;99.90;;;-141.85;100.00;63675.41;5041189;28;20198;-59
2021/03/14 05:26:55;;;;;;;4.23;2.37;;;4.30;99.90;;;-141.85;100.00;63675.41;5036415;28;20423;-58
2021/03/14 05:29:25;;;;;;;3.77;2.67;;;4.30;99.90;;;-141.85;100.00;63675.41;5035728;28;20248;-61
2021/03/14 05:31:56;;;;;;;3.80;2.53;;;4.30;99.90;;;-141.85;100.00;63675.41;5035307;28;20247;-58
2021/03/14 05:34:25;;;;;;;4.20;2.40;;;4.30;99.90;;;-141.85;100.00;63675.41;5035260;28;20184;-58
2021/03/14 05:36:52;;;;;;;3.97;2.60;;;4.30;99.90;;;-141.85;100.00;63675.41;5034655;28;20297;-59
2021/03/14 05:39:19;;;;;;;4.37;3.00;;;4.30;99.90;;;-141.85;100.00;63675.41;5035375;28;20287;-59
2021/03/14 05:41:47;;;;;;;3.17;2.73;;;4.30;99.90;;;-141.85;100.00;63675.41;5035212;28;20198;-59
2021/03/14 05:44:15;;;;;;;3.93;2.60;;;4.40;99.90;;;-141.85;100.00;63675.41;5034918;28;20235;-59
2021/03/14 05:46:43;;;;;;;5.43;3.40;;;4.50;99.90;;;-141.85;100.00;63675.41;5035191;28;20202;-59
2021/03/14 05:49:11;;;;;;;3.90;3.50;;;4.40;99.90;;;-141.85;100.00;63675.41;5034822;28;20206;-59
2021/03/14 05:51:42;;;;;;;3.73;3.03;;;4.50;99.90;;;-141.85;100.00;63675.41;5034560;28;20710;-59
2021/03/14 05:54:12;;;;;;;3.30;3.00;;;4.60;99.90;;;-141.85;100.00;63675.41;5035212;28;20591;-57
2021/03/14 05:56:45;;;;;;;4.83;3.60;;;4.60;99.90;;;-141.85;100.00;63675.41;5034592;28;20281;-59
2021/03/14 05:59:16;;;;;;;5.13;3.00;;;4.70;99.90;;;-141.85;100.00;63675.41;5034274;28;20641;-59
2021/03/14 06:01:49;;;;;;;3.47;3.00;;;4.80;99.90;;;-141.85;100.00;63675.41;5034926;28;20300;-59
2021/03/14 06:04:19;;;;;;;4.53;3.03;;;4.90;99.90;;;-141.85;100.00;63675.41;5034513;28;20188;-58
2021/03/14 06:06:46;;;;;;;3.33;3.03;;;4.90;99.90;;;-141.85;100.00;63675.41;5034373;28;20289;-58
2021/03/14 06:09:15;;;;;;;3.70;3.30;;;4.90;99.90;;;-141.85;100.00;63675.41;5034861;28;20206;-59
2021/03/14 06:11:43;;;;;;;3.50;3.20;;;4.90;99.90;;;-141.85;100.00;63675.41;5034536;28;20662;-59
2021/03/14 06:14:10;;;;;;;4.17;3.03;;;4.90;99.90;;;-141.85;100.00;63675.41;5034178;28;20220;-58
2021/03/14 06:16:38;;;;;;;3.80;3.10;;;5.00;99.90;;;-141.85;100.00;63675.41;5034544;28;20333;-58
2021/03/14 06:19:07;;;;;;;4.47;3.80;;;5.10;99.90;;;-141.85;100.00;63675.41;5034006;28;20250;-60
2021/03/14 06:21:34;;;;;;;7.47;3.50;;;5.10;99.90;;;-141.85;100.00;63675.41;5034187;28;20270;-59
2021/03/14 06:24:05;;;;;;;3.27;2.97;;;5.20;99.90;;;-141.85;100.00;63675.41;5034550;28;20208;-59
2021/03/14 06:26:41;;;;;;;6.00;3.40;;;5.20;99.90;;;-141.85;100.00;63675.41;5034354;28;20190;-58
2021/03/14 06:29:27;;;;;;;4.17;3.33;;;5.20;99.90;;;-141.85;100.00;63675.41;5034227;28;20193;-58
2021/03/14 06:31:59;;;;;;;3.80;3.40;;;5.20;99.90;;;-141.85;100.00;63675.41;5034131;28;20796;-60
2021/03/14 06:34:32;;;;;;;3.37;3.07;;;5.30;99.90;;;-141.85;100.00;63675.41;5034096;28;20674;-60
2021/03/14 06:37:10;;;;;;;3.90;3.40;;;5.30;99.90;;;-141.85;100.00;63675.41;5052239;28;20238;-59
2021/03/14 06:39:41;;;;;;;4.13;3.73;;;5.30;99.90;;;-141.85;100.00;63675.41;5054072;28;20278;-59
2021/03/14 06:42:08;;;;;;;4.10;3.70;;;5.40;99.90;;;-141.85;100.00;63675.41;5053974;28;20222;-60
2021/03/14 06:45:01;;;;;;;3.80;3.50;;;5.40;99.90;;;-141.85;100.00;63675.41;5054019;28;20198;-59
2021/03/14 06:47:41;;;;;;;4.50;3.60;;;5.50;99.90;;;-141.85;100.00;63675.41;5053815;28;20241;-59
2021/03/14 06:50:17;;;;;;;4.80;3.23;;;5.50;99.90;;;-141.85;100.00;63675.41;5053243;28;20185;-58
2021/03/14 06:53:12;;;;;;;4.57;3.80;;;5.50;99.90;;;-141.85;100.00;63675.41;5053587;28;20192;-59
2021/03/14 06:55:42;;;;;;;5.73;4.83;;;5.50;99.90;;;-141.85;100.00;63675.41;5053847;28;20304;-59
2021/03/14 06:58:25;;;;;;;4.87;3.80;;;5.60;99.90;;;-141.85;100.00;63675.41;5053336;28;20598;-59
2021/03/14 07:01:16;;;;;;;5.63;3.93;;;5.60;99.90;;;-141.85;100.00;63675.41;5053813;28;20195;-59
2021/03/14 07:03:47;;;;;;;4.70;3.80;;;5.70;99.90;;;-141.85;100.00;63675.41;5053525;28;20545;-59
2021/03/14 07:06:16;;;;;;;4.37;3.93;;;5.70;99.90;;;-141.85;100.00;63675.41;5053284;28;20245;-59
2021/03/14 07:08:45;;;;;;;5.97;4.00;;;5.70;99.90;;;-141.85;100.00;63675.41;5053013;28;20643;-59
2021/03/14 07:11:29;;;;;;;4.70;4.03;;;5.80;99.90;;;-141.85;100.00;63675.41;5053500;28;20216;-57
2021/03/14 07:13:56;;;;;;;5.43;4.07;;;5.80;99.90;;;-141.85;100.00;63675.41;5053004;28;20196;-59
2021/03/14 07:16:41;;;;;;;4.20;3.73;;;5.90;99.90;;;-141.85;100.00;63675.41;5053033;28;20224;-60
2021/03/14 07:19:13;;;;;;;5.33;3.77;;;5.90;99.90;;;-141.85;100.00;63675.41;5032947;28;20201;-59
2021/03/14 07:21:40;;;;;;;4.53;3.90;;;6.00;99.90;;;-141.85;100.00;63675.41;5031625;28;20198;-59
2021/03/14 07:24:13;;;;;;;3.70;3.30;;;6.10;99.90;;;-141.85;100.00;63675.41;5033484;28;20209;-58
2021/03/14 07:26:45;;;;;;;4.93;4.30;;;6.20;99.90;;;-141.85;100.00;63675.41;5031139;28;20273;-59
2021/03/14 07:29:12;;;;;;;5.80;3.97;;;6.20;99.90;;;-141.85;100.00;63675.41;5021343;28;20285;-59
2021/03/14 07:31:40;;;;;;;4.40;4.00;;;6.30;99.90;;;-141.85;100.00;63675.41;5013382;28;20228;-58
2021/03/14 07:34:08;;;;;;;5.03;3.90;;;6.30;99.90;;;-141.85;100.00;63675.41;5013004;28;20700;-60
2021/03/14 07:36:35;;;;;;;4.60;3.83;;;6.20;99.90;;;-141.85;100.00;63675.41;5012456;28;20328;-61
2021/03/14 07:39:07;;;;;;;4.90;4.27;;;6.30;99.90;;;-141.85;100.00;63675.41;5013348;28;20285;-58
2021/03/14 07:41:35;;;;;;;5.30;4.03;;;6.30;99.90;;;-141.85;100.00;63675.41;5013337;28;20264;-60
2021/03/14 07:44:02;;;;;;;5.87;4.23;;;6.30;99.90;;;-141.85;100.00;63675.41;5013149;28;20232;-59
2021/03/14 07:46:30;;;;;;;5.87;3.93;;;6.30;99.90;;;-141.85;100.00;63675.41;5013158;28;20197;-59
2021/03/14 07:49:01;;;;;;;5.80;4.57;;;6.30;99.90;;;-141.85;100.00;63675.41;5012778;28;20244;-58
2021/03/14 07:51:32;;;;;;;5.77;4.37;;;6.30;99.90;;;-141.85;100.00;63675.41;5019923;28;20637;-59
2021/03/14 07:54:05;;;;;;;7.83;4.60;;;6.30;99.90;;;-141.85;100.00;63675.41;5025550;28;20743;-59
2021/03/14 07:56:36;;;;;;;7.40;4.43;;;6.40;99.90;;;-141.85;100.00;63675.41;5029326;28;20226;-59
2021/03/14 07:59:04;;;;;;;4.50;3.80;;;6.40;99.90;;;-141.85;100.00;63675.41;5028477;28;20239;-60
2021/03/14 08:01:34;;;;;;;6.00;4.13;;;6.40;99.90;;;-141.85;100.00;63675.41;5032663;28;20239;-58
2021/03/14 08:04:03;;;;;;;6.43;4.60;;;6.50;99.90;;;-141.85;100.00;63675.41;5032454;28;20568;-58
2021/03/14 08:06:51;;;;;;;6.70;4.43;;;6.50;99.90;;;-141.85;100.00;63675.41;5032594;28;20291;-59
2021/03/14 08:09:43;;;;;;;5.20;3.90;;;6.60;99.90;;;-141.85;100.00;63675.41;5032921;28;20265;-58
2021/03/14 08:12:23;;;;;;;5.23;3.97;;;6.50;99.90;;;-141.85;100.00;63675.41;5030886;28;20234;-58
2021/03/14 08:14:53;;;;;;;7.77;4.20;;;6.60;99.90;;;-141.85;100.00;63675.41;5027538;28;20685;-58
2021/03/14 08:17:26;;;;;;;5.63;4.93;;;6.60;99.90;;;-141.85;100.00;63675.41;5041535;28;20209;-58
2021/03/14 08:19:54;;;;;;;5.47;4.93;;;6.60;99.90;;;-141.85;100.00;63675.41;5040929;28;20280;-62
2021/03/14 08:22:48;;;;;;;6.83;5.17;;;6.60;99.90;;;-141.85;100.00;63675.41;5042395;28;20231;-61
2021/03/14 08:25:22;;;;;;;6.40;4.70;;;6.60;99.90;;;-141.85;100.00;63675.41;5043418;28;20642;-61
2021/03/14 08:27:54;;;;;;;7.43;5.03;;;6.70;99.90;;;-141.85;100.00;63675.41;5044554;28;20196;-61
2021/03/14 08:30:45;;;;;;;5.80;4.90;;;6.80;99.90;;;-141.85;100.00;63675.41;5042588;28;20182;-61
2021/03/14 08:33:42;;;;;;;7.30;4.10;;;6.90;99.90;;;-141.85;100.00;63675.41;5045427;28;20609;-62
2021/03/14 08:36:13;;;;;;;4.60;4.10;;;6.90;99.90;;;-141.85;100.00;63675.41;5002580;28;20228;-62
2021/03/14 08:38:49;;;;;;;6.97;4.27;;;7.00;99.90;;;-141.85;100.00;63675.41;5036049;28;20687;-64
2021/03/14 08:41:27;;;;;;;5.17;3.90;;;7.00;99.90;;;-141.85;100.00;63675.41;5035933;28;20193;-62
2021/03/14 08:44:00;;;;;;;7.83;4.00;;;7.20;99.90;;;-141.85;100.00;63675.41;5035875;28;20644;-62
2021/03/14 08:47:07;;;;;;;5.77;4.10;;;7.20;99.90;;;-141.85;100.00;63675.41;5036636;28;20221;-62
2021/03/14 08:49:40;;;;;;;4.37;3.73;;;7.30;99.90;;;-141.85;100.00;63675.41;5035064;28;20236;-62
2021/03/14 08:52:09;;;;;;;7.30;4.07;;;7.30;99.90;;;-141.85;100.00;63675.41;5016353;28;20321;-62
2021/03/14 08:54:40;;;;;;;5.20;3.93;;;7.20;99.90;;;-141.85;100.00;63675.41;5015941;28;20279;-63
2021/03/14 08:57:10;;;;;;;5.87;4.10;;;7.10;99.90;;;-141.85;100.00;63675.41;5015940;28;20297;-64
2021/03/14 08:59:47;;;;;;;5.67;3.80;;;7.10;99.90;;;-141.85;100.00;63675.41;5017225;28;20627;-62
2021/03/14 09:02:22;;;;;;;5.03;4.50;;;7.20;99.90;;;-141.85;100.00;63675.41;5037318;28;20770;-60
2021/03/14 09:04:50;;;;;;;4.70;3.60;;;7.20;99.90;;;-141.85;100.00;63675.41;5035535;28;20185;-59
2021/03/14 09:07:18;;;;;;;5.97;3.80;;;7.10;99.90;;;-141.85;100.00;63675.41;5035826;28;20242;-60
2021/03/14 09:09:47;;;;;;;4.57;3.83;;;7.10;99.90;;;-141.85;100.00;63675.41;5035637;28;20205;-61
2021/03/14 09:12:16;;;;;;;7.43;3.70;;;7.00;99.90;;;-141.85;100.00;63675.41;5035639;28;20606;-60
2021/03/14 09:14:44;;;;;;;5.27;4.03;;;7.10;99.90;;;-141.85;100.00;63675.41;5035219;28;20228;-60
2021/03/14 09:17:14;;;;;;;5.13;3.90;;;7.20;99.90;;;-141.85;100.00;63675.41;5035541;28;20295;-61
2021/03/14 09:19:48;;;;;;;4.53;3.83;;;7.30;99.90;;;-141.85;100.00;63675.41;5034097;28;20202;-64
2021/03/14 09:22:19;;;;;;;5.27;3.60;;;7.30;99.90;;;-141.85;100.00;63675.41;5034533;28;20284;-61
2021/03/14 09:24:58;;;;;;;6.23;4.23;;;7.40;99.90;;;-141.85;100.00;63675.41;5037533;28;20517;-65
2021/03/14 09:27:27;;;;;;;7.03;4.30;;;7.40;99.90;;;-141.85;100.00;63675.41;5039589;28;20226;-65
2021/03/14 09:29:58;;;;;;;6.33;4.10;;;7.40;99.90;;;-141.85;100.00;63675.41;5036933;28;20671;-63
2021/03/14 09:32:35;;;;;;;7.30;4.47;;;7.30;99.90;;;-141.85;100.00;63675.41;5035417;28;20194;-65
2021/03/14 09:35:19;;;;;;;5.17;3.80;;;7.40;99.90;;;-141.85;100.00;63675.41;5034610;28;20622;-66
2021/03/14 09:37:51;;;;;;;4.43;3.97;;;7.40;99.90;;;-141.85;100.00;63675.41;5035022;28;20286;-65
2021/03/14 09:40:32;;;;;;;5.17;4.27;;;7.50;99.90;;;-141.85;100.00;63675.41;5034963;28;20213;-64
2021/03/14 09:43:18;;;;;;;4.77;3.93;;;7.60;99.90;;;-141.85;100.00;63675.41;5035033;28;20182;-62
2021/03/14 09:45:49;;;;;;;7.07;4.10;;;7.70;99.90;;;-141.85;100.00;63675.41;5035218;28;20239;-62
2021/03/14 09:48:19;;;;;;;5.10;4.13;;;7.80;99.90;;;-141.85;100.00;63675.41;5044182;28;20196;-63
2021/03/14 09:50:50;;;;;;;7.77;4.50;;;7.80;99.90;;;-141.85;100.00;63675.41;5037541;28;20229;-53
2021/03/14 09:53:19;;;;;;;5.20;4.73;;;7.80;99.90;;;-141.85;100.00;63675.41;5034953;28;20186;-56
2021/03/14 09:55:50;;;;;;;5.00;4.50;;;7.90;99.90;;;-141.85;100.00;63675.41;5034413;28;20198;-54
2021/03/14 09:58:19;;;;;;;9.13;5.30;;;7.90;99.90;;;-141.85;100.00;63675.41;5034407;28;20281;-56
2021/03/14 10:00:50;;;;;;;5.20;4.10;;;8.10;99.90;;;-141.85;100.00;63675.41;5034833;28;20277;-56
2021/03/14 10:03:21;;;;;;;7.53;5.00;;;8.10;99.90;;;-141.85;100.00;63675.41;5034219;28;20185;-57
2021/03/14 10:05:51;;;;;;;5.37;4.87;;;8.10;99.90;;;-141.85;100.00;63675.41;5034496;28;20657;-58
2021/03/14 10:08:21;;;;;;;6.53;4.67;;;8.10;99.90;;;-141.85;100.00;63675.41;5034417;28;20194;-62
2021/03/14 10:10:51;;;;;;;6.87;5.17;;;8.00;99.90;;;-141.85;100.00;63675.41;5033931;28;20225;-61
2021/03/14 10:13:25;;;;;;;7.70;4.80;;;7.90;99.90;;;-141.85;100.00;63675.41;5034397;28;20186;-66
2021/03/14 10:15:54;;;;;;;6.13;4.40;;;7.80;99.90;;;-141.85;100.00;63675.41;5034511;28;20210;-66
2021/03/14 10:18:23;;;;;;;6.73;4.83;;;7.60;99.90;;;-141.85;100.00;63675.41;5033927;28;20237;-61
2021/03/14 10:20:52;;;;;;;6.73;5.30;;;7.50;99.90;;;-141.85;100.00;63675.41;5041682;28;20228;-63